Amy C. Mc Allister — WCZ9520 — position and weather

sailwx.info

Track history (hours):
 
Tides and Currents Weather Stations Pressure Air Temp Water Temp Dewpoint Dewpoint Depression Visibility Wind Speed Wind Dir Waves Ship Positions

Amy C. Mc Allister

Owner: MC ALLISTER TOWING & TRANSPORTATION INC, NEW YORK, NY. More information available from US FCC via Universal Licensing System and Coast Guard Vessel Documentation Center.

Last reported at 2017-Oct-17 03:47 UTC. Time now 2017-Oct-17 11:29 UTC.
Position N 36°56' W 076°20'.

; draft 4.9 m.

Type: Towing. MMSI: 366995040.

Date/timePositionNaut miles runAvg speedWind from/ knotsBaromVisibWave heightAir tempDewpointWater temp
2017-Oct-17 03:47N 36°56' W 076°20'3 6.3
2017-Oct-17 03:16N 36°53' W 076°21'0 0.5
2017-Oct-17 02:54N 36°53' W 076°21'0 0.0
2017-Oct-17 02:25N 36°53' W 076°21'0 0.0
2017-Oct-17 02:00N 36°53' W 076°21'0 0.0
2017-Oct-17 01:30N 36°53' W 076°21'1 2.1
2017-Oct-17 01:00N 36°53' W 076°20'2 3.8
2017-Oct-17 00:27N 36°55' W 076°20'0 0.0
2017-Oct-16 23:38N 36°55' W 076°20'0 0.0
2017-Oct-16 23:27N 36°55' W 076°20'0 0.0
2017-Oct-16 22:55N 36°55' W 076°20'0 0.0
2017-Oct-16 22:27N 36°55' W 076°20'0 0.0
2017-Oct-16 21:58N 36°55' W 076°20'0 0.0
2017-Oct-16 21:31N 36°55' W 076°20'0 0.0
2017-Oct-16 20:38N 36°55' W 076°20'0 0.0
2017-Oct-16 20:31N 36°55' W 076°20'0 0.0
2017-Oct-16 20:01N 36°55' W 076°20'0 0.0
2017-Oct-16 19:29N 36°55' W 076°20'0 0.0
2017-Oct-16 18:26N 36°55' W 076°20'0 0.0
2017-Oct-16 18:00N 36°55' W 076°20'0 0.0
2017-Oct-16 17:25N 36°55' W 076°20'0 0.0
2017-Oct-16 17:00N 36°55' W 076°20'0 0.0
2017-Oct-16 16:29N 36°55' W 076°20'0 0.0
2017-Oct-16 16:00N 36°55' W 076°20'0 0.0
2017-Oct-16 15:30N 36°55' W 076°20'0 0.0
2017-Oct-16 15:00N 36°55' W 076°20'0 0.0
2017-Oct-16 14:30N 36°55' W 076°20'0 0.0
2017-Oct-16 13:30N 36°55' W 076°20'0 0.0
2017-Oct-16 11:47N 36°55' W 076°20'0 0.1
2017-Oct-16 11:20N 36°56' W 076°20'0 0.0
2017-Oct-15 22:46N 36°56' W 076°20'0 0.5
2017-Oct-15 22:31N 36°55' W 076°20'113 7.7
2017-Oct-15 07:53N 38°48' W 076°26'3 8.7
2017-Oct-15 07:30N 38°51' W 076°25'4 8.5
2017-Oct-15 07:00N 38°55' W 076°24'4 7.9
2017-Oct-15 06:30N 38°59' W 076°23'4 8.2
2017-Oct-15 06:00N 39°03' W 076°21'5 8.0
2017-Oct-15 05:20N 39°08' W 076°19'3 8.3
2017-Oct-15 05:00N 39°10' W 076°18'4 8.6
2017-Oct-15 04:30N 39°14' W 076°14'5 9.2
2017-Oct-15 03:57N 39°19' W 076°13'4 9.7
2017-Oct-15 03:30N 39°22' W 076°09'5 9.9
2017-Oct-15 03:00N 39°24' W 076°03'510.3
2017-Oct-15 02:30N 39°28' W 075°59'510.6
2017-Oct-15 02:00N 39°31' W 075°53'510.1
2017-Oct-15 01:30N 39°32' W 075°47'611.2
2017-Oct-15 01:00N 39°33' W 075°40'510.3
2017-Oct-15 00:30N 39°34' W 075°33'4 7.2
2017-Oct-15 00:00N 39°37' W 075°35'4 7.8
2017-Oct-14 23:30N 39°40' W 075°32'4 7.4
2017-Oct-14 23:00N 39°44' W 075°30'4 7.2
2017-Oct-14 22:30N 39°47' W 075°28'4 7.5
2017-Oct-14 22:00N 39°49' W 075°24'4 7.3
2017-Oct-14 21:31N 39°51' W 075°20'4 8.4
2017-Oct-14 21:00N 39°51' W 075°14'5 9.3
2017-Oct-14 20:31N 39°53' W 075°09'1 1.6
2017-Oct-14 20:00N 39°54' W 075°08'0 0.0
2017-Oct-14 19:30N 39°54' W 075°08'0 0.0
2017-Oct-14 19:00N 39°54' W 075°08'0 0.0
2017-Oct-14 18:30N 39°54' W 075°08'0 0.0
2017-Oct-14 18:00N 39°54' W 075°08'0 0.0
2017-Oct-14 17:30N 39°54' W 075°08'0 0.0
2017-Oct-14 17:00N 39°54' W 075°08'0 0.0
2017-Oct-14 16:31N 39°54' W 075°08'0 0.0
2017-Oct-14 16:00N 39°54' W 075°08'0 0.0
2017-Oct-14 15:31N 39°54' W 075°08'0 0.0
2017-Oct-14 15:01N 39°54' W 075°08'0 0.0
2017-Oct-14 14:31N 39°54' W 075°08'0 0.0
2017-Oct-14 14:00N 39°54' W 075°08'0 0.0
2017-Oct-14 13:30N 39°54' W 075°08'0 0.0
2017-Oct-14 13:01N 39°54' W 075°08'0 0.1
2017-Oct-14 12:30N 39°54' W 075°08'1 2.7
2017-Oct-14 12:01N 39°53' W 075°09'5 9.1
2017-Oct-14 11:31N 39°51' W 075°15'510.1
2017-Oct-14 11:00N 39°50' W 075°21'510.1
2017-Oct-14 10:30N 39°47' W 075°27'510.0
2017-Oct-14 10:00N 39°43' W 075°30'5 9.9
2017-Oct-14 09:30N 39°39' W 075°33'4 8.6
2017-Oct-14 09:00N 39°35' W 075°33'4 7.4
2017-Oct-14 08:30N 39°33' W 075°38'5 9.9
2017-Oct-14 08:00N 39°32' W 075°44'510.0
2017-Oct-14 07:30N 39°32' W 075°50'510.2
2017-Oct-14 07:00N 39°29' W 075°56'510.2
2017-Oct-14 06:30N 39°26' W 076°01'5 9.5
2017-Oct-14 06:00N 39°23' W 076°06'5 9.7
2017-Oct-14 05:30N 39°20' W 076°11'9 9.3
2017-Oct-14 04:31N 39°12' W 076°16'0 9.4
2017-Oct-14 04:29N 39°12' W 076°16'5 8.2
2017-Oct-14 03:56N 39°09' W 076°21'5 9.2
2017-Oct-14 03:27N 39°11' W 076°26'4 9.2
2017-Oct-14 02:58N 39°13' W 076°32'3 6.1
2017-Oct-14 02:30N 39°15' W 076°33'0 0.0
2017-Oct-14 02:00N 39°15' W 076°33'0 0.0
2017-Oct-14 01:25N 39°15' W 076°33'0 0.0
2017-Oct-14 01:00N 39°15' W 076°33'0 0.0
2017-Oct-14 00:28N 39°15' W 076°33'0 0.0
2017-Oct-13 23:57N 39°15' W 076°33'0 0.0
2017-Oct-13 23:19N 39°15' W 076°33'0 0.0
2017-Oct-13 23:00N 39°15' W 076°33'0 0.0
2017-Oct-13 22:30N 39°15' W 076°33'0 0.0
2017-Oct-13 22:00N 39°15' W 076°33'0 0.0
2017-Oct-13 21:30N 39°15' W 076°33'0 0.0
2017-Oct-13 21:00N 39°15' W 076°33'0 0.0
2017-Oct-13 20:30N 39°15' W 076°33'0 0.0
2017-Oct-13 20:00N 39°15' W 076°33'0 0.1
2017-Oct-13 19:30N 39°15' W 076°33'0 0.0
2017-Oct-13 19:00N 39°15' W 076°33'0 0.0
2017-Oct-13 18:30N 39°15' W 076°33'0 0.0
2017-Oct-13 18:00N 39°15' W 076°33'0 0.0
2017-Oct-13 17:30N 39°15' W 076°33'0 0.0
2017-Oct-13 17:00N 39°15' W 076°33'0 0.0
2017-Oct-13 16:30N 39°15' W 076°33'0 0.0
2017-Oct-13 16:00N 39°15' W 076°33'0 0.0
2017-Oct-13 15:30N 39°15' W 076°33'0 0.0
2017-Oct-13 15:00N 39°15' W 076°33'0 0.0
2017-Oct-13 14:30N 39°15' W 076°33'0 0.0
2017-Oct-13 14:00N 39°15' W 076°33'0 0.0
2017-Oct-13 13:30N 39°15' W 076°33'0 0.0
2017-Oct-13 13:00N 39°15' W 076°33'0 0.0
2017-Oct-13 12:30N 39°15' W 076°33'0 0.2
2017-Oct-13 12:00N 39°15' W 076°33'0 0.2
2017-Oct-13 11:30N 39°15' W 076°33'0 0.0
2017-Oct-13 11:00N 39°15' W 076°33'0 0.0
2017-Oct-13 10:30N 39°15' W 076°33'0 0.0
2017-Oct-13 10:00N 39°15' W 076°33'0 0.0
2017-Oct-13 09:30N 39°15' W 076°33'0 0.0
2017-Oct-13 09:00N 39°15' W 076°33'0 0.0
2017-Oct-13 08:30N 39°15' W 076°33'0 0.0
2017-Oct-13 08:00N 39°15' W 076°33'0 0.0
2017-Oct-13 07:30N 39°15' W 076°33'0 0.0
2017-Oct-13 07:00N 39°15' W 076°33'0 0.0
2017-Oct-13 06:30N 39°15' W 076°33'0 0.0
2017-Oct-13 06:00N 39°15' W 076°33'0 0.0
2017-Oct-13 05:30N 39°15' W 076°33'0 0.0
2017-Oct-13 05:00N 39°15' W 076°33'0 0.0
2017-Oct-13 04:30N 39°15' W 076°33'0 0.0
2017-Oct-13 04:00N 39°15' W 076°33'0 0.0
2017-Oct-13 03:30N 39°15' W 076°33'0 0.0
2017-Oct-13 03:00N 39°15' W 076°33'0 0.0
2017-Oct-13 02:30N 39°15' W 076°33'0 0.0
2017-Oct-13 02:00N 39°15' W 076°33'0 0.0
2017-Oct-13 01:30N 39°15' W 076°33'0 0.0
2017-Oct-13 01:00N 39°15' W 076°33'0 0.0
2017-Oct-13 00:30N 39°15' W 076°33'0 0.0
2017-Oct-13 00:00N 39°15' W 076°33'0 0.3
2017-Oct-12 23:30N 39°15' W 076°33'2 4.0
2017-Oct-12 23:00N 39°14' W 076°32'4 7.4
2017-Oct-12 22:30N 39°11' W 076°28'7 6.8
2017-Oct-12 21:27N 39°05' W 076°24'3 7.4
2017-Oct-12 21:00N 39°02' W 076°23'4 7.1
2017-Oct-12 20:30N 38°58' W 076°23'5 8.0
2017-Oct-12 19:53N 38°54' W 076°25'3 8.0
2017-Oct-12 19:30N 38°51' W 076°26'115 5.0
2017-Oct-11 20:33N 36°56' W 076°20'0 0.0
2017-Oct-11 20:04N 36°56' W 076°20'0 0.0
2017-Oct-11 19:53N 36°56' W 076°20'0 0.0
2017-Oct-11 19:30N 36°56' W 076°20'0 0.8
2017-Oct-11 18:53N 36°55' W 076°20'1 2.2
2017-Oct-11 18:27N 36°55' W 076°20'0 0.0
2017-Oct-11 17:10N 36°55' W 076°20'0 0.0
2017-Oct-11 16:58N 36°55' W 076°20'1 0.1
2017-Oct-10 23:58N 36°56' W 076°20'0 0.0
2017-Oct-10 23:24N 36°56' W 076°20'0 0.0
2017-Oct-10 22:53N 36°56' W 076°20'0 0.0
2017-Oct-10 22:25N 36°56' W 076°20'0 0.0
2017-Oct-10 21:52N 36°56' W 076°20'3 6.8
2017-Oct-10 21:22N 36°52' W 076°20'3 7.2
2017-Oct-10 21:00N 36°51' W 076°18'3 5.7
2017-Oct-10 20:30N 36°48' W 076°18'0 0.1
2017-Oct-10 19:59N 36°48' W 076°18'0 0.0
2017-Oct-10 19:30N 36°48' W 076°18'0 0.0
2017-Oct-10 19:00N 36°48' W 076°18'0 0.0
2017-Oct-10 18:16N 36°48' W 076°18'0 0.0
2017-Oct-10 17:59N 36°48' W 076°18'0 0.2
2017-Oct-10 17:30N 36°48' W 076°18'2 4.7
2017-Oct-10 17:00N 36°50' W 076°17'0 0.0
2017-Oct-10 16:29N 36°50' W 076°17'0 0.0
2017-Oct-10 15:58N 36°50' W 076°17'0 0.0
2017-Oct-10 15:21N 36°50' W 076°17'0 0.0
2017-Oct-10 15:00N 36°50' W 076°17'6 0.2
2017-Oct-09 06:15N 36°55' W 076°20'0 0.0
2017-Oct-09 03:45N 36°55' W 076°20'0 0.0
2017-Oct-09 03:30N 36°55' W 076°20'0 0.0
2017-Oct-09 02:44N 36°55' W 076°20'0 0.0
2017-Oct-09 02:29N 36°55' W 076°20'0 0.0
2017-Oct-09 01:54N 36°55' W 076°20'115 6.7
2017-Oct-08 08:40N 38°50' W 076°26'1 7.2
2017-Oct-08 08:30N 38°51' W 076°26'4 7.5
2017-Oct-08 08:00N 38°55' W 076°25'3 6.8
2017-Oct-08 07:30N 38°58' W 076°24'3 6.1
2017-Oct-08 07:00N 39°01' W 076°22'3 6.8
2017-Oct-08 06:30N 39°04' W 076°20'5 8.2
2017-Oct-08 05:52N 39°09' W 076°19'3 8.4
2017-Oct-08 05:30N 39°11' W 076°16'5 8.4
2017-Oct-08 04:53N 39°16' W 076°14'3 8.4
2017-Oct-08 04:30N 39°19' W 076°13'4 8.4
2017-Oct-08 04:00N 39°22' W 076°08'4 8.1
2017-Oct-08 03:30N 39°24' W 076°04'4 7.6
2017-Oct-08 03:00N 39°26' W 076°00'4 7.3
2017-Oct-08 02:30N 39°29' W 075°57'3 6.9
2017-Oct-08 02:00N 39°31' W 075°53'3 6.2
2017-Oct-08 01:30N 39°32' W 075°49'3 6.0
2017-Oct-08 01:01N 39°32' W 075°46'3 6.3
2017-Oct-08 00:30N 39°33' W 075°41'3 6.3
2017-Oct-08 00:00N 39°33' W 075°37'3 6.8
2017-Oct-07 23:31N 39°34' W 075°33'4 8.0
2017-Oct-07 23:00N 39°38' W 075°35'5 9.4
2017-Oct-07 22:30N 39°41' W 075°31'4 8.2
2017-Oct-07 22:00N 39°45' W 075°29'4 8.0
2017-Oct-07 21:30N 39°48' W 075°25'4 7.2
2017-Oct-07 21:00N 39°50' W 075°22'4 8.0
2017-Oct-07 20:31N 39°51' W 075°17'4 7.1
2017-Oct-07 20:01N 39°52' W 075°12'3 5.9
2017-Oct-07 19:31N 39°53' W 075°09'1 2.3
2017-Oct-07 19:00N 39°54' W 075°08'0 0.0
2017-Oct-07 18:31N 39°54' W 075°08'0 0.0
2017-Oct-07 18:01N 39°54' W 075°08'0 0.0
2017-Oct-07 17:31N 39°54' W 075°08'0 0.0
2017-Oct-07 17:01N 39°54' W 075°08'0 0.0
2017-Oct-07 16:31N 39°54' W 075°08'0 0.0
2017-Oct-07 16:00N 39°54' W 075°08'0 0.0
2017-Oct-07 15:30N 39°54' W 075°08'0 0.0
2017-Oct-07 15:01N 39°54' W 075°08'0 0.0
2017-Oct-07 14:31N 39°54' W 075°08'0 0.0
2017-Oct-07 14:01N 39°54' W 075°08'0 0.0
2017-Oct-07 13:31N 39°54' W 075°08'0 0.0
2017-Oct-07 13:00N 39°54' W 075°08'0 0.0
2017-Oct-07 12:31N 39°54' W 075°08'0 0.3
2017-Oct-07 12:01N 39°54' W 075°08'1 2.4
2017-Oct-07 11:31N 39°53' W 075°08'3 6.6
2017-Oct-07 11:01N 39°52' W 075°13'3 6.8
2017-Oct-07 10:31N 39°51' W 075°17'3 6.7
2017-Oct-07 10:01N 39°51' W 075°21'3 6.4
2017-Oct-07 09:31N 39°49' W 075°24'3 6.8
2017-Oct-07 09:00N 39°47' W 075°28'3 6.3
2017-Oct-07 08:30N 39°44' W 075°30'3 6.4
2017-Oct-07 08:00N 39°41' W 075°31'4 7.2
2017-Oct-07 07:31N 39°38' W 075°34'3 6.8
2017-Oct-07 07:01N 39°35' W 075°33'2 4.2
2017-Oct-07 06:31N 39°33' W 075°35'3 5.8
2017-Oct-07 06:00N 39°33' W 075°39'3 5.9
2017-Oct-07 05:31N 39°33' W 075°43'3 6.3
2017-Oct-07 05:01N 39°32' W 075°47'3 5.7
2017-Oct-07 04:31N 39°32' W 075°51'4 7.0
2017-Oct-07 04:00N 39°30' W 075°55'  
Track history (hours):
 
Tides and Currents Weather Stations Pressure Air Temp Water Temp Dewpoint Dewpoint Depression Visibility Wind Speed Wind Dir Waves Ship Positions

Amy C. Mc Allister

Owner: MC ALLISTER TOWING & TRANSPORTATION INC, NEW YORK, NY. More information available from US FCC via Universal Licensing System and Coast Guard Vessel Documentation Center.

Last reported at 2017-Oct-17 03:47 UTC. Time now 2017-Oct-17 11:29 UTC.
Position N 36°56' W 076°20'.

; draft 4.9 m.

Type: Towing. MMSI: 366995040.

Date/timePositionNaut miles runAvg speedWind from/ knotsBaromVisibWave heightAir tempDewpointWater temp
2017-Oct-17 03:47N 36°56' W 076°20'3 6.3
2017-Oct-17 03:16N 36°53' W 076°21'0 0.5
2017-Oct-17 02:54N 36°53' W 076°21'0 0.0
2017-Oct-17 02:25N 36°53' W 076°21'0 0.0
2017-Oct-17 02:00N 36°53' W 076°21'0 0.0
2017-Oct-17 01:30N 36°53' W 076°21'1 2.1
2017-Oct-17 01:00N 36°53' W 076°20'2 3.8
2017-Oct-17 00:27N 36°55' W 076°20'0 0.0
2017-Oct-16 23:38N 36°55' W 076°20'0 0.0
2017-Oct-16 23:27N 36°55' W 076°20'0 0.0
2017-Oct-16 22:55N 36°55' W 076°20'0 0.0
2017-Oct-16 22:27N 36°55' W 076°20'0 0.0
2017-Oct-16 21:58N 36°55' W 076°20'0 0.0
2017-Oct-16 21:31N 36°55' W 076°20'0 0.0
2017-Oct-16 20:38N 36°55' W 076°20'0 0.0
2017-Oct-16 20:31N 36°55' W 076°20'0 0.0
2017-Oct-16 20:01N 36°55' W 076°20'0 0.0
2017-Oct-16 19:29N 36°55' W 076°20'0 0.0
2017-Oct-16 18:26N 36°55' W 076°20'0 0.0
2017-Oct-16 18:00N 36°55' W 076°20'0 0.0
2017-Oct-16 17:25N 36°55' W 076°20'0 0.0
2017-Oct-16 17:00N 36°55' W 076°20'0 0.0
2017-Oct-16 16:29N 36°55' W 076°20'0 0.0
2017-Oct-16 16:00N 36°55' W 076°20'0 0.0
2017-Oct-16 15:30N 36°55' W 076°20'0 0.0
2017-Oct-16 15:00N 36°55' W 076°20'0 0.0
2017-Oct-16 14:30N 36°55' W 076°20'0 0.0
2017-Oct-16 13:30N 36°55' W 076°20'0 0.0
2017-Oct-16 11:47N 36°55' W 076°20'0 0.1
2017-Oct-16 11:20N 36°56' W 076°20'0 0.0
2017-Oct-15 22:46N 36°56' W 076°20'0 0.5
2017-Oct-15 22:31N 36°55' W 076°20'113 7.7
2017-Oct-15 07:53N 38°48' W 076°26'3 8.7
2017-Oct-15 07:30N 38°51' W 076°25'4 8.5
2017-Oct-15 07:00N 38°55' W 076°24'4 7.9
2017-Oct-15 06:30N 38°59' W 076°23'4 8.2
2017-Oct-15 06:00N 39°03' W 076°21'5 8.0
2017-Oct-15 05:20N 39°08' W 076°19'3 8.3
2017-Oct-15 05:00N 39°10' W 076°18'4 8.6
2017-Oct-15 04:30N 39°14' W 076°14'5 9.2
2017-Oct-15 03:57N 39°19' W 076°13'4 9.7
2017-Oct-15 03:30N 39°22' W 076°09'5 9.9
2017-Oct-15 03:00N 39°24' W 076°03'510.3
2017-Oct-15 02:30N 39°28' W 075°59'510.6
2017-Oct-15 02:00N 39°31' W 075°53'510.1
2017-Oct-15 01:30N 39°32' W 075°47'611.2
2017-Oct-15 01:00N 39°33' W 075°40'510.3
2017-Oct-15 00:30N 39°34' W 075°33'4 7.2
2017-Oct-15 00:00N 39°37' W 075°35'4 7.8
2017-Oct-14 23:30N 39°40' W 075°32'4 7.4
2017-Oct-14 23:00N 39°44' W 075°30'4 7.2
2017-Oct-14 22:30N 39°47' W 075°28'4 7.5
2017-Oct-14 22:00N 39°49' W 075°24'4 7.3
2017-Oct-14 21:31N 39°51' W 075°20'4 8.4
2017-Oct-14 21:00N 39°51' W 075°14'5 9.3
2017-Oct-14 20:31N 39°53' W 075°09'1 1.6
2017-Oct-14 20:00N 39°54' W 075°08'0 0.0
2017-Oct-14 19:30N 39°54' W 075°08'0 0.0
2017-Oct-14 19:00N 39°54' W 075°08'0 0.0
2017-Oct-14 18:30N 39°54' W 075°08'0 0.0
2017-Oct-14 18:00N 39°54' W 075°08'0 0.0
2017-Oct-14 17:30N 39°54' W 075°08'0 0.0
2017-Oct-14 17:00N 39°54' W 075°08'0 0.0
2017-Oct-14 16:31N 39°54' W 075°08'0 0.0
2017-Oct-14 16:00N 39°54' W 075°08'0 0.0
2017-Oct-14 15:31N 39°54' W 075°08'0 0.0
2017-Oct-14 15:01N 39°54' W 075°08'0 0.0
2017-Oct-14 14:31N 39°54' W 075°08'0 0.0
2017-Oct-14 14:00N 39°54' W 075°08'0 0.0
2017-Oct-14 13:30N 39°54' W 075°08'0 0.0
2017-Oct-14 13:01N 39°54' W 075°08'0 0.1
2017-Oct-14 12:30N 39°54' W 075°08'1 2.7
2017-Oct-14 12:01N 39°53' W 075°09'5 9.1
2017-Oct-14 11:31N 39°51' W 075°15'510.1
2017-Oct-14 11:00N 39°50' W 075°21'510.1
2017-Oct-14 10:30N 39°47' W 075°27'510.0
2017-Oct-14 10:00N 39°43' W 075°30'5 9.9
2017-Oct-14 09:30N 39°39' W 075°33'4 8.6
2017-Oct-14 09:00N 39°35' W 075°33'4 7.4
2017-Oct-14 08:30N 39°33' W 075°38'5 9.9
2017-Oct-14 08:00N 39°32' W 075°44'510.0
2017-Oct-14 07:30N 39°32' W 075°50'510.2
2017-Oct-14 07:00N 39°29' W 075°56'510.2
2017-Oct-14 06:30N 39°26' W 076°01'5 9.5
2017-Oct-14 06:00N 39°23' W 076°06'5 9.7
2017-Oct-14 05:30N 39°20' W 076°11'9 9.3
2017-Oct-14 04:31N 39°12' W 076°16'0 9.4
2017-Oct-14 04:29N 39°12' W 076°16'5 8.2
2017-Oct-14 03:56N 39°09' W 076°21'5 9.2
2017-Oct-14 03:27N 39°11' W 076°26'4 9.2
2017-Oct-14 02:58N 39°13' W 076°32'3 6.1
2017-Oct-14 02:30N 39°15' W 076°33'0 0.0
2017-Oct-14 02:00N 39°15' W 076°33'0 0.0
2017-Oct-14 01:25N 39°15' W 076°33'0 0.0
2017-Oct-14 01:00N 39°15' W 076°33'0 0.0
2017-Oct-14 00:28N 39°15' W 076°33'0 0.0
2017-Oct-13 23:57N 39°15' W 076°33'0 0.0
2017-Oct-13 23:19N 39°15' W 076°33'0 0.0
2017-Oct-13 23:00N 39°15' W 076°33'0 0.0
2017-Oct-13 22:30N 39°15' W 076°33'0 0.0
2017-Oct-13 22:00N 39°15' W 076°33'0 0.0
2017-Oct-13 21:30N 39°15' W 076°33'0 0.0
2017-Oct-13 21:00N 39°15' W 076°33'0 0.0
2017-Oct-13 20:30N 39°15' W 076°33'0 0.0
2017-Oct-13 20:00N 39°15' W 076°33'0 0.1
2017-Oct-13 19:30N 39°15' W 076°33'0 0.0
2017-Oct-13 19:00N 39°15' W 076°33'0 0.0
2017-Oct-13 18:30N 39°15' W 076°33'0 0.0
2017-Oct-13 18:00N 39°15' W 076°33'0 0.0
2017-Oct-13 17:30N 39°15' W 076°33'0 0.0
2017-Oct-13 17:00N 39°15' W 076°33'0 0.0
2017-Oct-13 16:30N 39°15' W 076°33'0 0.0
2017-Oct-13 16:00N 39°15' W 076°33'0 0.0
2017-Oct-13 15:30N 39°15' W 076°33'0 0.0
2017-Oct-13 15:00N 39°15' W 076°33'0 0.0
2017-Oct-13 14:30N 39°15' W 076°33'0 0.0
2017-Oct-13 14:00N 39°15' W 076°33'0 0.0
2017-Oct-13 13:30N 39°15' W 076°33'0 0.0
2017-Oct-13 13:00N 39°15' W 076°33'0 0.0
2017-Oct-13 12:30N 39°15' W 076°33'0 0.2
2017-Oct-13 12:00N 39°15' W 076°33'0 0.2
2017-Oct-13 11:30N 39°15' W 076°33'0 0.0
2017-Oct-13 11:00N 39°15' W 076°33'0 0.0
2017-Oct-13 10:30N 39°15' W 076°33'0 0.0
2017-Oct-13 10:00N 39°15' W 076°33'0 0.0
2017-Oct-13 09:30N 39°15' W 076°33'0 0.0
2017-Oct-13 09:00N 39°15' W 076°33'0 0.0
2017-Oct-13 08:30N 39°15' W 076°33'0 0.0
2017-Oct-13 08:00N 39°15' W 076°33'0 0.0
2017-Oct-13 07:30N 39°15' W 076°33'0 0.0
2017-Oct-13 07:00N 39°15' W 076°33'0 0.0
2017-Oct-13 06:30N 39°15' W 076°33'0 0.0
2017-Oct-13 06:00N 39°15' W 076°33'0 0.0
2017-Oct-13 05:30N 39°15' W 076°33'0 0.0
2017-Oct-13 05:00N 39°15' W 076°33'0 0.0
2017-Oct-13 04:30N 39°15' W 076°33'0 0.0
2017-Oct-13 04:00N 39°15' W 076°33'0 0.0
2017-Oct-13 03:30N 39°15' W 076°33'0 0.0
2017-Oct-13 03:00N 39°15' W 076°33'0 0.0
2017-Oct-13 02:30N 39°15' W 076°33'0 0.0
2017-Oct-13 02:00N 39°15' W 076°33'0 0.0
2017-Oct-13 01:30N 39°15' W 076°33'0 0.0
2017-Oct-13 01:00N 39°15' W 076°33'0 0.0
2017-Oct-13 00:30N 39°15' W 076°33'0 0.0
2017-Oct-13 00:00N 39°15' W 076°33'0 0.3
2017-Oct-12 23:30N 39°15' W 076°33'2 4.0
2017-Oct-12 23:00N 39°14' W 076°32'4 7.4
2017-Oct-12 22:30N 39°11' W 076°28'7 6.8
2017-Oct-12 21:27N 39°05' W 076°24'3 7.4
2017-Oct-12 21:00N 39°02' W 076°23'4 7.1
2017-Oct-12 20:30N 38°58' W 076°23'5 8.0
2017-Oct-12 19:53N 38°54' W 076°25'3 8.0
2017-Oct-12 19:30N 38°51' W 076°26'115 5.0
2017-Oct-11 20:33N 36°56' W 076°20'0 0.0
2017-Oct-11 20:04N 36°56' W 076°20'0 0.0
2017-Oct-11 19:53N 36°56' W 076°20'0 0.0
2017-Oct-11 19:30N 36°56' W 076°20'0 0.8
2017-Oct-11 18:53N 36°55' W 076°20'1 2.2
2017-Oct-11 18:27N 36°55' W 076°20'0 0.0
2017-Oct-11 17:10N 36°55' W 076°20'0 0.0
2017-Oct-11 16:58N 36°55' W 076°20'1 0.1
2017-Oct-10 23:58N 36°56' W 076°20'0 0.0
2017-Oct-10 23:24N 36°56' W 076°20'0 0.0
2017-Oct-10 22:53N 36°56' W 076°20'0 0.0
2017-Oct-10 22:25N 36°56' W 076°20'0 0.0
2017-Oct-10 21:52N 36°56' W 076°20'3 6.8
2017-Oct-10 21:22N 36°52' W 076°20'3 7.2
2017-Oct-10 21:00N 36°51' W 076°18'3 5.7
2017-Oct-10 20:30N 36°48' W 076°18'0 0.1
2017-Oct-10 19:59N 36°48' W 076°18'0 0.0
2017-Oct-10 19:30N 36°48' W 076°18'0 0.0
2017-Oct-10 19:00N 36°48' W 076°18'0 0.0
2017-Oct-10 18:16N 36°48' W 076°18'0 0.0
2017-Oct-10 17:59N 36°48' W 076°18'0 0.2
2017-Oct-10 17:30N 36°48' W 076°18'2 4.7
2017-Oct-10 17:00N 36°50' W 076°17'0 0.0
2017-Oct-10 16:29N 36°50' W 076°17'0 0.0
2017-Oct-10 15:58N 36°50' W 076°17'0 0.0
2017-Oct-10 15:21N 36°50' W 076°17'0 0.0
2017-Oct-10 15:00N 36°50' W 076°17'6 0.2
2017-Oct-09 06:15N 36°55' W 076°20'0 0.0
2017-Oct-09 03:45N 36°55' W 076°20'0 0.0
2017-Oct-09 03:30N 36°55' W 076°20'0 0.0
2017-Oct-09 02:44N 36°55' W 076°20'0 0.0
2017-Oct-09 02:29N 36°55' W 076°20'0 0.0
2017-Oct-09 01:54N 36°55' W 076°20'115 6.7
2017-Oct-08 08:40N 38°50' W 076°26'1 7.2
2017-Oct-08 08:30N 38°51' W 076°26'4 7.5
2017-Oct-08 08:00N 38°55' W 076°25'3 6.8
2017-Oct-08 07:30N 38°58' W 076°24'3 6.1
2017-Oct-08 07:00N 39°01' W 076°22'3 6.8
2017-Oct-08 06:30N 39°04' W 076°20'5 8.2
2017-Oct-08 05:52N 39°09' W 076°19'3 8.4
2017-Oct-08 05:30N 39°11' W 076°16'5 8.4
2017-Oct-08 04:53N 39°16' W 076°14'3 8.4
2017-Oct-08 04:30N 39°19' W 076°13'4 8.4
2017-Oct-08 04:00N 39°22' W 076°08'4 8.1
2017-Oct-08 03:30N 39°24' W 076°04'4 7.6
2017-Oct-08 03:00N 39°26' W 076°00'4 7.3
2017-Oct-08 02:30N 39°29' W 075°57'3 6.9
2017-Oct-08 02:00N 39°31' W 075°53'3 6.2
2017-Oct-08 01:30N 39°32' W 075°49'3 6.0
2017-Oct-08 01:01N 39°32' W 075°46'3 6.3
2017-Oct-08 00:30N 39°33' W 075°41'3 6.3
2017-Oct-08 00:00N 39°33' W 075°37'3 6.8
2017-Oct-07 23:31N 39°34' W 075°33'4 8.0
2017-Oct-07 23:00N 39°38' W 075°35'5 9.4
2017-Oct-07 22:30N 39°41' W 075°31'4 8.2
2017-Oct-07 22:00N 39°45' W 075°29'4 8.0
2017-Oct-07 21:30N 39°48' W 075°25'4 7.2
2017-Oct-07 21:00N 39°50' W 075°22'4 8.0
2017-Oct-07 20:31N 39°51' W 075°17'4 7.1
2017-Oct-07 20:01N 39°52' W 075°12'3 5.9
2017-Oct-07 19:31N 39°53' W 075°09'1 2.3
2017-Oct-07 19:00N 39°54' W 075°08'0 0.0
2017-Oct-07 18:31N 39°54' W 075°08'0 0.0
2017-Oct-07 18:01N 39°54' W 075°08'0 0.0
2017-Oct-07 17:31N 39°54' W 075°08'0 0.0
2017-Oct-07 17:01N 39°54' W 075°08'0 0.0
2017-Oct-07 16:31N 39°54' W 075°08'0 0.0
2017-Oct-07 16:00N 39°54' W 075°08'0 0.0
2017-Oct-07 15:30N 39°54' W 075°08'0 0.0
2017-Oct-07 15:01N 39°54' W 075°08'0 0.0
2017-Oct-07 14:31N 39°54' W 075°08'0 0.0
2017-Oct-07 14:01N 39°54' W 075°08'0 0.0
2017-Oct-07 13:31N 39°54' W 075°08'0 0.0
2017-Oct-07 13:00N 39°54' W 075°08'0 0.0
2017-Oct-07 12:31N 39°54' W 075°08'0 0.3
2017-Oct-07 12:01N 39°54' W 075°08'1 2.4
2017-Oct-07 11:31N 39°53' W 075°08'3 6.6
2017-Oct-07 11:01N 39°52' W 075°13'3 6.8
2017-Oct-07 10:31N 39°51' W 075°17'3 6.7
2017-Oct-07 10:01N 39°51' W 075°21'3 6.4
2017-Oct-07 09:31N 39°49' W 075°24'3 6.8
2017-Oct-07 09:00N 39°47' W 075°28'3 6.3
2017-Oct-07 08:30N 39°44' W 075°30'3 6.4
2017-Oct-07 08:00N 39°41' W 075°31'4 7.2
2017-Oct-07 07:31N 39°38' W 075°34'3 6.8
2017-Oct-07 07:01N 39°35' W 075°33'2 4.2
2017-Oct-07 06:31N 39°33' W 075°35'3 5.8
2017-Oct-07 06:00N 39°33' W 075°39'3 5.9
2017-Oct-07 05:31N 39°33' W 075°43'3 6.3
2017-Oct-07 05:01N 39°32' W 075°47'3 5.7
2017-Oct-07 04:31N 39°32' W 075°51'4 7.0
2017-Oct-07 04:00N 39°30' W 075°55'  

Dump ship's entire track history